createdAt,value
2022-10-26T00:01:23.159Z,13.43
2022-10-26T00:05:24.604Z,13.44
2022-10-26T00:09:26.044Z,13.43
2022-10-26T00:13:27.770Z,13.44
2022-10-26T00:17:29.227Z,13.44
2022-10-26T00:21:30.642Z,13.44
2022-10-26T00:25:31.999Z,13.44
2022-10-26T00:29:33.355Z,13.43
2022-10-26T00:33:35.435Z,13.46
2022-10-26T00:37:36.836Z,13.47
2022-10-26T00:41:38.229Z,13.48
2022-10-26T00:45:39.624Z,13.49
2022-10-26T00:49:41.115Z,13.47
2022-10-26T00:53:42.595Z,13.46
2022-10-26T00:57:44.576Z,13.46
2022-10-26T01:01:47.488Z,13.44
2022-10-26T01:05:49.575Z,13.42
2022-10-26T01:09:51.553Z,13.41
2022-10-26T01:13:53.754Z,13.38
2022-10-26T01:17:57.410Z,13.36
2022-10-26T01:22:04.622Z,13.35
2022-10-26T01:26:22.573Z,13.38
2022-10-26T01:30:31.512Z,13.37
2022-10-26T01:34:44.586Z,13.37
2022-10-26T01:39:03.301Z,13.40
2022-10-26T01:43:08.034Z,13.40
2022-10-26T01:47:11.306Z,13.36
2022-10-26T01:51:13.288Z,13.31
2022-10-26T01:55:32.975Z,13.29
2022-10-26T01:59:37.264Z,13.24
2022-10-26T02:03:57.070Z,13.22
2022-10-26T02:08:11.012Z,13.21
2022-10-26T02:12:31.696Z,13.20
2022-10-26T02:16:46.973Z,13.16
2022-10-26T02:20:51.396Z,13.14
2022-10-26T02:24:53.566Z,13.10
2022-10-26T02:28:56.240Z,13.09
2022-10-26T02:32:58.034Z,13.07
2022-10-26T02:37:01.113Z,13.05
2022-10-26T02:41:03.366Z,12.97
2022-10-26T02:45:07.078Z,12.96
2022-10-26T02:49:08.565Z,12.97
2022-10-26T02:53:25.040Z,12.98
2022-10-26T02:57:29.925Z,12.99
2022-10-26T03:01:32.590Z,12.95
2022-10-26T03:05:36.065Z,12.97
2022-10-26T03:09:37.415Z,12.98
2022-10-26T03:13:38.700Z,12.91
2022-10-26T03:17:40.788Z,12.91
2022-10-26T03:21:42.331Z,12.91
2022-10-26T03:25:43.617Z,12.89
2022-10-26T03:29:44.941Z,12.89
2022-10-26T03:33:46.446Z,12.86
2022-10-26T03:37:48.098Z,12.85
2022-10-26T03:41:50.218Z,12.81
2022-10-26T03:45:51.488Z,12.76
2022-10-26T03:49:52.948Z,12.67
2022-10-26T03:53:54.192Z,12.60
2022-10-26T03:57:55.525Z,12.54
2022-10-26T04:01:58.033Z,12.50
2022-10-26T04:06:03.734Z,12.49
2022-10-26T04:10:05.849Z,12.47
2022-10-26T04:14:07.406Z,12.49
2022-10-26T04:18:09.135Z,12.55
2022-10-26T04:22:10.980Z,12.54
2022-10-26T04:26:12.288Z,12.55
2022-10-26T04:30:14.094Z,12.58
2022-10-26T04:34:15.652Z,12.60
2022-10-26T04:38:17.153Z,12.61
2022-10-26T04:42:18.468Z,12.64
2022-10-26T04:46:19.785Z,12.67
2022-10-26T04:50:22.779Z,12.73
2022-10-26T04:54:26.407Z,12.86
2022-10-26T04:58:28.295Z,12.95
2022-10-26T05:02:29.935Z,13.02
2022-10-26T05:06:31.877Z,13.11
2022-10-26T05:10:33.750Z,13.18
2022-10-26T05:14:35.228Z,13.27
2022-10-26T05:18:38.148Z,13.34
2022-10-26T05:22:40.560Z,13.40
2022-10-26T05:26:43.959Z,13.43
2022-10-26T05:30:46.577Z,13.48
2022-10-26T05:34:50.941Z,13.55
2022-10-26T05:38:52.393Z,13.55
2022-10-26T05:42:59.269Z,13.59
2022-10-26T05:47:00.769Z,13.63
2022-10-26T05:51:02.493Z,13.61
2022-10-26T05:55:03.978Z,13.66
2022-10-26T05:59:10.888Z,13.72
2022-10-26T06:03:20.103Z,13.76
2022-10-26T06:07:21.983Z,13.77
2022-10-26T06:11:23.453Z,13.77
2022-10-26T06:15:25.348Z,13.75
2022-10-26T06:19:32.263Z,13.76
2022-10-26T06:23:37.077Z,13.77
2022-10-26T06:27:56.424Z,13.77
2022-10-26T06:31:58.346Z,13.76
2022-10-26T06:36:17.480Z,13.74
2022-10-26T06:40:19.430Z,13.81
2022-10-26T06:44:22.573Z,13.91
2022-10-26T06:48:28.247Z,13.93
2022-10-26T06:52:33.512Z,13.95
2022-10-26T06:56:36.231Z,13.98
2022-10-26T07:00:39.080Z,13.99
2022-10-26T07:04:44.221Z,14.00
2022-10-26T07:08:45.571Z,13.98
2022-10-26T07:12:47.461Z,13.97
2022-10-26T07:16:48.734Z,13.96
2022-10-26T07:20:52.017Z,14.05
2022-10-26T07:24:53.378Z,14.13
2022-10-26T07:28:54.737Z,14.17
2022-10-26T07:32:59.737Z,14.28
2022-10-26T07:37:01.230Z,14.42
2022-10-26T07:41:02.721Z,14.55
2022-10-26T07:45:04.288Z,14.66
2022-10-26T07:49:05.671Z,14.79
2022-10-26T07:53:06.986Z,14.92
2022-10-26T07:57:08.265Z,15.07
2022-10-26T08:01:11.289Z,15.20
2022-10-26T08:05:12.723Z,15.30
2022-10-26T08:09:14.176Z,15.40
2022-10-26T08:13:15.828Z,15.47
2022-10-26T08:17:17.305Z,15.56
2022-10-26T08:21:25.989Z,15.63
2022-10-26T08:25:37.000Z,15.72
2022-10-26T08:29:38.260Z,15.85
2022-10-26T08:33:44.165Z,15.96
2022-10-26T08:37:46.401Z,16.07
2022-10-26T08:41:52.724Z,16.17
2022-10-26T08:45:57.967Z,16.29
2022-10-26T08:50:04.797Z,16.45
2022-10-26T08:54:14.142Z,16.57
2022-10-26T08:58:18.456Z,16.61
2022-10-26T09:02:20.372Z,16.66
2022-10-26T09:06:44.954Z,16.68
2022-10-26T09:10:56.108Z,16.75
2022-10-26T09:14:57.533Z,16.83
2022-10-26T09:19:17.101Z,16.98
2022-10-26T09:23:24.444Z,17.13
2022-10-26T09:27:29.843Z,17.20
2022-10-26T09:31:33.359Z,17.35
2022-10-26T09:35:43.285Z,17.50
2022-10-26T09:40:02.844Z,17.65
2022-10-26T09:44:19.925Z,17.77
2022-10-26T09:48:31.967Z,17.83
2022-10-26T09:52:33.429Z,17.86
2022-10-26T09:56:37.047Z,17.90
2022-10-26T10:00:38.860Z,17.99
2022-10-26T10:04:46.695Z,18.15
2022-10-26T10:09:10.738Z,18.29
2022-10-26T10:13:16.659Z,18.49
2022-10-26T10:17:20.590Z,18.63
2022-10-26T10:21:22.144Z,18.63
2022-10-26T10:25:26.112Z,18.76
2022-10-26T10:29:28.873Z,19.07
2022-10-26T10:33:37.307Z,19.07
2022-10-26T10:37:46.876Z,19.27
2022-10-26T10:41:48.198Z,19.32
2022-10-26T10:45:52.802Z,19.39
2022-10-26T10:50:02.076Z,19.55
2022-10-26T10:54:05.884Z,19.73
2022-10-26T10:58:10.131Z,19.95
2022-10-26T11:02:30.060Z,20.12
2022-10-26T11:06:34.340Z,20.36
2022-10-26T11:10:41.741Z,20.66
2022-10-26T11:14:47.576Z,20.76
2022-10-26T11:18:56.640Z,20.74
2022-10-26T11:23:16.298Z,20.81
2022-10-26T11:27:21.968Z,20.89
2022-10-26T11:31:25.133Z,20.85
2022-10-26T11:35:33.013Z,20.86
2022-10-26T11:39:38.688Z,20.91
2022-10-26T11:43:47.721Z,20.92
2022-10-26T11:52:47.091Z,21.10
2022-10-26T11:56:51.952Z,21.23
2022-10-26T12:01:01.345Z,21.33
2022-10-26T12:05:09.462Z,21.40
2022-10-26T12:09:21.612Z,21.47
2022-10-26T12:13:32.097Z,21.53
2022-10-26T12:18:08.964Z,21.52
2022-10-26T12:22:18.677Z,21.50
2022-10-26T12:26:26.708Z,21.49
2022-10-26T12:30:34.117Z,21.48
2022-10-26T12:34:52.651Z,21.52
2022-10-26T12:39:09.073Z,21.52
2022-10-26T12:43:13.276Z,21.52
2022-10-26T12:51:47.808Z,21.46
2022-10-26T12:56:03.105Z,21.41
2022-10-26T13:00:08.373Z,21.34
2022-10-26T13:04:23.030Z,21.34
2022-10-26T13:17:24.993Z,21.40
2022-10-26T13:26:34.834Z,21.48
2022-10-26T13:30:45.826Z,21.38
2022-10-26T13:35:15.815Z,21.41
2022-10-26T13:39:20.139Z,21.38
2022-10-26T13:43:22.499Z,21.35
2022-10-26T13:47:30.753Z,21.34
2022-10-26T13:51:38.582Z,21.34
2022-10-26T13:55:51.281Z,21.34
2022-10-26T14:00:01.365Z,21.27
2022-10-26T14:04:18.577Z,21.29
2022-10-26T14:08:21.456Z,21.27
2022-10-26T14:12:25.635Z,21.26
2022-10-26T14:16:32.605Z,21.25
2022-10-26T14:20:34.077Z,21.22
2022-10-26T14:29:02.702Z,21.04
2022-10-26T14:33:18.040Z,20.99
2022-10-26T14:37:24.696Z,20.95
2022-10-26T14:41:28.425Z,20.90
2022-10-26T14:45:47.730Z,20.87
2022-10-26T14:49:50.297Z,20.80
2022-10-26T14:53:52.631Z,20.71
2022-10-26T14:58:07.061Z,20.55
2022-10-26T15:02:11.850Z,20.46
2022-10-26T15:06:30.572Z,20.32
2022-10-26T15:10:38.092Z,20.17
2022-10-26T15:14:44.280Z,20.07
2022-10-26T15:18:47.028Z,19.90
2022-10-26T15:22:57.321Z,19.75
2022-10-26T15:26:59.176Z,19.51
2022-10-26T15:31:12.580Z,19.29
2022-10-26T15:35:20.125Z,19.08
2022-10-26T15:39:22.400Z,18.88
2022-10-26T15:43:23.687Z,18.68
2022-10-26T15:47:28.705Z,18.61
2022-10-26T15:51:30.441Z,18.41
2022-10-26T15:55:31.731Z,18.20
2022-10-26T15:59:33.040Z,18.04
2022-10-26T16:03:34.345Z,17.88
2022-10-26T16:07:35.666Z,17.75
2022-10-26T16:11:44.342Z,17.57
2022-10-26T16:15:48.163Z,17.39
2022-10-26T16:19:49.618Z,17.20
2022-10-26T16:23:56.083Z,17.03
2022-10-26T16:27:58.422Z,16.81
2022-10-26T16:32:08.472Z,16.66
2022-10-26T16:36:13.681Z,16.51
2022-10-26T16:40:14.996Z,16.27
2022-10-26T16:44:16.344Z,16.12
2022-10-26T16:48:17.672Z,16.01
2022-10-26T16:52:19.014Z,15.81
2022-10-26T16:56:21.705Z,15.67
2022-10-26T17:00:23.424Z,15.54
2022-10-26T17:04:24.741Z,15.39
2022-10-26T17:08:26.745Z,15.23
2022-10-26T17:12:28.373Z,15.13
2022-10-26T17:16:30.653Z,15.04
2022-10-26T17:20:33.202Z,14.94
2022-10-26T17:24:34.896Z,14.82
2022-10-26T17:28:45.104Z,14.73
2022-10-26T17:32:47.178Z,14.65
2022-10-26T17:36:48.468Z,14.53
2022-10-26T17:40:51.671Z,14.44
2022-10-26T17:44:55.305Z,14.35
2022-10-26T17:48:58.913Z,14.26
2022-10-26T17:53:00.576Z,14.13
2022-10-26T17:57:08.836Z,13.99
2022-10-26T18:01:11.754Z,13.87
2022-10-26T18:05:13.840Z,13.80
2022-10-26T18:09:20.592Z,13.78
2022-10-26T18:13:26.719Z,13.66
2022-10-26T18:17:29.356Z,13.60
2022-10-26T18:21:32.369Z,13.53
2022-10-26T18:25:36.931Z,13.48
2022-10-26T18:29:39.842Z,13.45
2022-10-26T18:33:42.789Z,13.35
2022-10-26T18:37:44.870Z,13.29
2022-10-26T18:41:50.964Z,13.26
2022-10-26T18:45:53.457Z,13.21
2022-10-26T18:49:57.297Z,13.16
2022-10-26T18:53:59.665Z,13.12
2022-10-26T18:58:01.199Z,13.02
2022-10-26T19:02:02.959Z,12.98
2022-10-26T19:06:12.243Z,12.94
2022-10-26T19:10:13.544Z,12.90
2022-10-26T19:14:14.860Z,12.82
2022-10-26T19:18:16.410Z,12.69
2022-10-26T19:22:17.677Z,12.63
2022-10-26T19:26:20.882Z,12.59
2022-10-26T19:30:22.352Z,12.52
2022-10-26T19:34:24.130Z,12.47
2022-10-26T19:38:27.652Z,12.39
2022-10-26T19:42:31.174Z,12.33
2022-10-26T19:46:33.382Z,12.26
2022-10-26T19:50:37.305Z,12.24
2022-10-26T19:54:38.553Z,12.22
2022-10-26T19:58:43.709Z,12.19
2022-10-26T20:02:45.202Z,12.14
2022-10-26T20:06:54.534Z,12.07
2022-10-26T20:10:59.829Z,12.00
2022-10-26T20:15:01.692Z,11.96
2022-10-26T20:19:03.924Z,11.89
2022-10-26T20:23:06.489Z,11.82
2022-10-26T20:27:07.743Z,11.79
2022-10-26T20:31:09.037Z,11.71
2022-10-26T20:35:10.268Z,11.69
2022-10-26T20:39:11.854Z,11.65
2022-10-26T20:43:17.627Z,11.58
2022-10-26T20:47:19.179Z,11.50
2022-10-26T20:51:26.345Z,11.48
2022-10-26T20:55:33.699Z,11.40
2022-10-26T20:59:40.735Z,11.31
2022-10-26T21:03:42.296Z,11.34
2022-10-26T21:07:44.138Z,11.32
2022-10-26T21:11:45.576Z,11.30
2022-10-26T21:15:46.993Z,11.22
2022-10-26T21:19:48.439Z,11.14
2022-10-26T21:23:49.700Z,11.14
2022-10-26T21:27:55.916Z,11.09
2022-10-26T21:31:57.243Z,11.07
2022-10-26T21:35:59.198Z,10.99
2022-10-26T21:40:00.606Z,10.97
2022-10-26T21:44:14.989Z,10.97
2022-10-26T21:48:24.808Z,10.94
2022-10-26T21:52:26.634Z,10.90
2022-10-26T21:56:27.935Z,10.85
2022-10-26T22:00:29.595Z,10.75
2022-10-26T22:04:31.605Z,10.70
2022-10-26T22:08:33.228Z,10.70
2022-10-26T22:12:34.794Z,10.66
2022-10-26T22:16:36.276Z,10.61
2022-10-26T22:20:37.552Z,10.58
2022-10-26T22:24:38.846Z,10.51
2022-10-26T22:28:42.851Z,10.47
2022-10-26T22:32:44.384Z,10.47
2022-10-26T22:36:45.703Z,10.38
2022-10-26T22:40:54.128Z,10.36
2022-10-26T22:44:55.373Z,10.29
2022-10-26T22:48:57.840Z,10.26
2022-10-26T22:52:59.073Z,10.21
2022-10-26T22:57:00.765Z,10.17
2022-10-26T23:01:22.447Z,10.12
2022-10-26T23:05:24.300Z,10.08
2022-10-26T23:09:25.526Z,10.00
2022-10-26T23:13:27.339Z,9.95
2022-10-26T23:17:28.665Z,9.88
2022-10-26T23:21:30.224Z,9.84
2022-10-26T23:25:31.561Z,9.81
2022-10-26T23:29:32.948Z,9.78
2022-10-26T23:33:34.347Z,9.82
2022-10-26T23:37:35.671Z,9.77
2022-10-26T23:41:36.922Z,9.79
2022-10-26T23:45:38.232Z,9.83
2022-10-26T23:49:39.570Z,9.79
2022-10-26T23:53:40.969Z,9.71
2022-10-26T23:57:42.542Z,9.72
